Terminal Aerodrome Forecast
Issued by NWS

Home | Current Version | Previous Version | Text Only | Print | Product List | Glossary On
Versions: 1 2 3 4 5 6 7 8 9 10 11 12 13 14 15 16
000
FTUS41 KBGM 031416 AAA
TAFRME
TAF AMD
KRME 031416Z 0314/0412 29010KT P6SM SCT045 BKN200
     FM031700 25010KT P6SM SCT050
      TEMPO 0319/0323 24020G33KT 2SM TSRA OVC035CB
     FM032300 VRB04KT P6SM FEW040 SCT200=

USA.gov is the U.S. government's official web portal to all federal, state and local government web resources and services.